sensor_id;sensor_type;location;lat;lon;timestamp;P1;durP1;ratioP1;P2;durP2;ratioP2
11671;SDS011;5892;43.412;24.612;2022-11-15T00:00:22;65.67;;;32.80;;
11671;SDS011;5892;43.412;24.612;2022-11-15T00:02:49;70.40;;;34.23;;
11671;SDS011;5892;43.412;24.612;2022-11-15T00:05:16;67.47;;;34.07;;
11671;SDS011;5892;43.412;24.612;2022-11-15T00:07:43;86.20;;;39.70;;
11671;SDS011;5892;43.412;24.612;2022-11-15T00:10:09;69.33;;;32.10;;
11671;SDS011;5892;43.412;24.612;2022-11-15T00:12:36;60.13;;;30.80;;
11671;SDS011;5892;43.412;24.612;2022-11-15T00:15:06;39.83;;;22.70;;
11671;SDS011;5892;43.412;24.612;2022-11-15T00:28:40;75.03;;;35.17;;
11671;SDS011;5892;43.412;24.612;2022-11-15T00:31:11;73.37;;;35.37;;
11671;SDS011;5892;43.412;24.612;2022-11-15T00:33:39;77.70;;;37.03;;
11671;SDS011;5892;43.412;24.612;2022-11-15T00:36:07;77.17;;;38.17;;
11671;SDS011;5892;43.412;24.612;2022-11-15T00:38:36;88.77;;;40.23;;
11671;SDS011;5892;43.412;24.612;2022-11-15T00:41:04;90.43;;;40.10;;
11671;SDS011;5892;43.412;24.612;2022-11-15T00:43:32;81.80;;;39.03;;
11671;SDS011;5892;43.412;24.612;2022-11-15T00:46:00;77.80;;;40.27;;
11671;SDS011;5892;43.412;24.612;2022-11-15T00:48:28;81.27;;;40.10;;
11671;SDS011;5892;43.412;24.612;2022-11-15T00:50:56;90.63;;;40.23;;
11671;SDS011;5892;43.412;24.612;2022-11-15T00:53:23;92.27;;;40.43;;
11671;SDS011;5892;43.412;24.612;2022-11-15T00:55:50;95.07;;;41.33;;
11671;SDS011;5892;43.412;24.612;2022-11-15T00:58:17;87.47;;;39.80;;
11671;SDS011;5892;43.412;24.612;2022-11-15T01:00:44;83.77;;;39.50;;
11671;SDS011;5892;43.412;24.612;2022-11-15T01:03:11;89.27;;;41.13;;
11671;SDS011;5892;43.412;24.612;2022-11-15T01:38:30;83.23;;;39.27;;
11671;SDS011;5892;43.412;24.612;2022-11-15T01:40:57;80.70;;;39.97;;
11671;SDS011;5892;43.412;24.612;2022-11-15T01:43:25;74.87;;;37.00;;
11671;SDS011;5892;43.412;24.612;2022-11-15T01:45:54;72.50;;;36.60;;
11671;SDS011;5892;43.412;24.612;2022-11-15T01:48:25;65.30;;;34.17;;
11671;SDS011;5892;43.412;24.612;2022-11-15T01:50:58;68.10;;;38.27;;
11671;SDS011;5892;43.412;24.612;2022-11-15T01:53:26;64.97;;;35.53;;
11671;SDS011;5892;43.412;24.612;2022-11-15T01:55:59;73.97;;;36.87;;
11671;SDS011;5892;43.412;24.612;2022-11-15T01:58:30;87.40;;;40.90;;
11671;SDS011;5892;43.412;24.612;2022-11-15T02:00:58;73.73;;;38.50;;
11671;SDS011;5892;43.412;24.612;2022-11-15T02:03:26;69.70;;;37.03;;
11671;SDS011;5892;43.412;24.612;2022-11-15T02:06:01;77.70;;;38.37;;
11671;SDS011;5892;43.412;24.612;2022-11-15T02:08:30;66.27;;;36.03;;
11671;SDS011;5892;43.412;24.612;2022-11-15T02:10:59;69.90;;;37.50;;
11671;SDS011;5892;43.412;24.612;2022-11-15T02:13:26;67.90;;;34.60;;
11671;SDS011;5892;43.412;24.612;2022-11-15T02:15:57;68.10;;;36.30;;
11671;SDS011;5892;43.412;24.612;2022-11-15T02:18:31;65.70;;;35.63;;
11671;SDS011;5892;43.412;24.612;2022-11-15T02:21:16;69.70;;;37.90;;
11671;SDS011;5892;43.412;24.612;2022-11-15T02:24:04;61.70;;;35.77;;
11671;SDS011;5892;43.412;24.612;2022-11-15T02:32:47;59.20;;;35.10;;
11671;SDS011;5892;43.412;24.612;2022-11-15T02:35:19;65.43;;;37.17;;
11671;SDS011;5892;43.412;24.612;2022-11-15T02:37:58;68.17;;;37.23;;
11671;SDS011;5892;43.412;24.612;2022-11-15T02:40:35;64.53;;;36.60;;
11671;SDS011;5892;43.412;24.612;2022-11-15T02:43:11;61.97;;;35.47;;
11671;SDS011;5892;43.412;24.612;2022-11-15T02:46:02;60.97;;;34.87;;
11671;SDS011;5892;43.412;24.612;2022-11-15T02:48:36;72.33;;;40.17;;
11671;SDS011;5892;43.412;24.612;2022-11-15T02:51:04;66.67;;;36.77;;
11671;SDS011;5892;43.412;24.612;2022-11-15T03:04:06;68.40;;;34.77;;
11671;SDS011;5892;43.412;24.612;2022-11-15T03:06:46;59.47;;;34.93;;
11671;SDS011;5892;43.412;24.612;2022-11-15T03:09:21;61.17;;;35.43;;
11671;SDS011;5892;43.412;24.612;2022-11-15T03:11:56;60.80;;;36.77;;
11671;SDS011;5892;43.412;24.612;2022-11-15T03:26:01;55.00;;;33.97;;
11671;SDS011;5892;43.412;24.612;2022-11-15T03:28:32;54.23;;;34.30;;
11671;SDS011;5892;43.412;24.612;2022-11-15T03:31:03;65.07;;;37.13;;
11671;SDS011;5892;43.412;24.612;2022-11-15T03:33:52;52.43;;;33.10;;
11671;SDS011;5892;43.412;24.612;2022-11-15T03:37:03;54.93;;;33.00;;
11671;SDS011;5892;43.412;24.612;2022-11-15T03:39:32;59.20;;;35.93;;
11671;SDS011;5892;43.412;24.612;2022-11-15T03:42:04;71.23;;;39.83;;
11671;SDS011;5892;43.412;24.612;2022-11-15T03:44:40;107.03;;;49.50;;
11671;SDS011;5892;43.412;24.612;2022-11-15T03:47:15;63.13;;;35.83;;
11671;SDS011;5892;43.412;24.612;2022-11-15T03:49:46;89.03;;;44.67;;
11671;SDS011;5892;43.412;24.612;2022-11-15T03:52:18;76.33;;;41.07;;
11671;SDS011;5892;43.412;24.612;2022-11-15T03:54:49;68.00;;;40.83;;
11671;SDS011;5892;43.412;24.612;2022-11-15T03:57:18;50.57;;;32.90;;
11671;SDS011;5892;43.412;24.612;2022-11-15T03:59:45;53.17;;;33.27;;
11671;SDS011;5892;43.412;24.612;2022-11-15T04:02:11;47.03;;;32.37;;
11671;SDS011;5892;43.412;24.612;2022-11-15T04:04:39;54.30;;;34.27;;
11671;SDS011;5892;43.412;24.612;2022-11-15T04:07:06;46.90;;;30.77;;
11671;SDS011;5892;43.412;24.612;2022-11-15T04:09:33;48.50;;;31.10;;
11671;SDS011;5892;43.412;24.612;2022-11-15T04:22:42;49.33;;;30.17;;
11671;SDS011;5892;43.412;24.612;2022-11-15T04:25:32;48.87;;;31.93;;
11671;SDS011;5892;43.412;24.612;2022-11-15T04:27:59;50.50;;;31.73;;
11671;SDS011;5892;43.412;24.612;2022-11-15T04:30:25;45.73;;;30.30;;
11671;SDS011;5892;43.412;24.612;2022-11-15T04:32:52;49.23;;;31.20;;
11671;SDS011;5892;43.412;24.612;2022-11-15T04:35:19;59.87;;;34.20;;
11671;SDS011;5892;43.412;24.612;2022-11-15T04:37:48;67.27;;;36.87;;
11671;SDS011;5892;43.412;24.612;2022-11-15T04:40:15;45.93;;;29.60;;
11671;SDS011;5892;43.412;24.612;2022-11-15T04:42:42;38.97;;;26.47;;
11671;SDS011;5892;43.412;24.612;2022-11-15T04:45:09;44.13;;;29.73;;
11671;SDS011;5892;43.412;24.612;2022-11-15T04:47:36;39.70;;;25.83;;
11671;SDS011;5892;43.412;24.612;2022-11-15T04:50:03;40.00;;;27.10;;
11671;SDS011;5892;43.412;24.612;2022-11-15T04:52:31;41.13;;;27.27;;
11671;SDS011;5892;43.412;24.612;2022-11-15T04:54:59;43.67;;;28.73;;
11671;SDS011;5892;43.412;24.612;2022-11-15T04:57:26;42.83;;;29.30;;
11671;SDS011;5892;43.412;24.612;2022-11-15T04:59:53;47.90;;;31.83;;
11671;SDS011;5892;43.412;24.612;2022-11-15T05:02:20;42.73;;;27.40;;
11671;SDS011;5892;43.412;24.612;2022-11-15T05:04:46;43.67;;;27.17;;
11671;SDS011;5892;43.412;24.612;2022-11-15T05:07:12;47.00;;;27.73;;
11671;SDS011;5892;43.412;24.612;2022-11-15T05:10:18;38.77;;;26.73;;
11671;SDS011;5892;43.412;24.612;2022-11-15T05:12:40;42.20;;;27.10;;
11671;SDS011;5892;43.412;24.612;2022-11-15T05:15:08;38.40;;;27.17;;
11671;SDS011;5892;43.412;24.612;2022-11-15T05:17:35;40.80;;;27.80;;
11671;SDS011;5892;43.412;24.612;2022-11-15T05:20:02;40.47;;;27.50;;
11671;SDS011;5892;43.412;24.612;2022-11-15T05:22:30;48.43;;;31.93;;
11671;SDS011;5892;43.412;24.612;2022-11-15T05:24:57;46.73;;;30.43;;
11671;SDS011;5892;43.412;24.612;2022-11-15T05:27:25;60.17;;;34.77;;
11671;SDS011;5892;43.412;24.612;2022-11-15T05:29:52;42.90;;;28.67;;
11671;SDS011;5892;43.412;24.612;2022-11-15T05:32:19;47.90;;;30.37;;
11671;SDS011;5892;43.412;24.612;2022-11-15T05:34:47;46.40;;;31.00;;
11671;SDS011;5892;43.412;24.612;2022-11-15T05:37:14;44.30;;;30.13;;
11671;SDS011;5892;43.412;24.612;2022-11-15T05:39:43;46.07;;;30.60;;
11671;SDS011;5892;43.412;24.612;2022-11-15T05:42:10;46.60;;;30.77;;
11671;SDS011;5892;43.412;24.612;2022-11-15T05:44:40;50.40;;;31.40;;
11671;SDS011;5892;43.412;24.612;2022-11-15T05:47:11;49.63;;;29.70;;
11671;SDS011;5892;43.412;24.612;2022-11-15T05:49:42;57.43;;;34.20;;
11671;SDS011;5892;43.412;24.612;2022-11-15T05:52:11;45.93;;;30.03;;
11671;SDS011;5892;43.412;24.612;2022-11-15T05:54:41;42.03;;;29.50;;
11671;SDS011;5892;43.412;24.612;2022-11-15T05:57:08;43.13;;;29.83;;
11671;SDS011;5892;43.412;24.612;2022-11-15T05:59:35;74.73;;;40.60;;
11671;SDS011;5892;43.412;24.612;2022-11-15T06:02:04;61.47;;;34.77;;
11671;SDS011;5892;43.412;24.612;2022-11-15T06:04:31;40.80;;;29.43;;
11671;SDS011;5892;43.412;24.612;2022-11-15T06:06:58;41.83;;;30.37;;
11671;SDS011;5892;43.412;24.612;2022-11-15T06:09:25;44.93;;;29.47;;
11671;SDS011;5892;43.412;24.612;2022-11-15T06:11:52;43.73;;;29.43;;
11671;SDS011;5892;43.412;24.612;2022-11-15T06:14:19;41.43;;;29.67;;
11671;SDS011;5892;43.412;24.612;2022-11-15T06:16:46;58.30;;;35.83;;
11671;SDS011;5892;43.412;24.612;2022-11-15T06:19:15;47.17;;;31.50;;
11671;SDS011;5892;43.412;24.612;2022-11-15T06:21:42;39.33;;;27.57;;
11671;SDS011;5892;43.412;24.612;2022-11-15T06:24:09;36.83;;;26.67;;
11671;SDS011;5892;43.412;24.612;2022-11-15T06:26:36;41.23;;;27.90;;
11671;SDS011;5892;43.412;24.612;2022-11-15T06:29:03;39.43;;;27.30;;
11671;SDS011;5892;43.412;24.612;2022-11-15T06:31:30;38.83;;;26.33;;
11671;SDS011;5892;43.412;24.612;2022-11-15T06:33:57;37.70;;;27.57;;
11671;SDS011;5892;43.412;24.612;2022-11-15T06:36:26;40.90;;;27.00;;
11671;SDS011;5892;43.412;24.612;2022-11-15T06:38:53;36.50;;;26.30;;
11671;SDS011;5892;43.412;24.612;2022-11-15T06:41:19;34.20;;;25.00;;
11671;SDS011;5892;43.412;24.612;2022-11-15T06:43:47;42.13;;;29.00;;
11671;SDS011;5892;43.412;24.612;2022-11-15T06:46:14;61.90;;;34.60;;
11671;SDS011;5892;43.412;24.612;2022-11-15T06:48:41;68.17;;;35.73;;
11671;SDS011;5892;43.412;24.612;2022-11-15T06:51:08;84.23;;;42.07;;
11671;SDS011;5892;43.412;24.612;2022-11-15T06:53:36;35.57;;;25.37;;
11671;SDS011;5892;43.412;24.612;2022-11-15T06:56:04;36.73;;;25.93;;
11671;SDS011;5892;43.412;24.612;2022-11-15T06:58:32;35.70;;;24.97;;
11671;SDS011;5892;43.412;24.612;2022-11-15T07:01:00;41.17;;;27.07;;
11671;SDS011;5892;43.412;24.612;2022-11-15T07:03:27;36.30;;;25.77;;
11671;SDS011;5892;43.412;24.612;2022-11-15T07:05:55;37.70;;;26.30;;
11671;SDS011;5892;43.412;24.612;2022-11-15T07:08:23;46.83;;;30.13;;
11671;SDS011;5892;43.412;24.612;2022-11-15T07:10:52;36.20;;;25.23;;
11671;SDS011;5892;43.412;24.612;2022-11-15T07:13:19;83.83;;;42.77;;
11671;SDS011;5892;43.412;24.612;2022-11-15T07:15:46;36.40;;;24.37;;
11671;SDS011;5892;43.412;24.612;2022-11-15T07:18:12;39.10;;;27.27;;
11671;SDS011;5892;43.412;24.612;2022-11-15T07:20:40;36.33;;;25.33;;
11671;SDS011;5892;43.412;24.612;2022-11-15T07:23:07;35.03;;;24.23;;
11671;SDS011;5892;43.412;24.612;2022-11-15T07:28:21;48.10;;;37.07;;
11671;SDS011;5892;43.412;24.612;2022-11-15T07:30:48;40.27;;;27.90;;
11671;SDS011;5892;43.412;24.612;2022-11-15T07:33:15;33.57;;;26.50;;
11671;SDS011;5892;43.412;24.612;2022-11-15T07:35:42;34.37;;;26.33;;
11671;SDS011;5892;43.412;24.612;2022-11-15T07:38:11;33.13;;;23.80;;
11671;SDS011;5892;43.412;24.612;2022-11-15T07:40:40;36.50;;;23.70;;
11671;SDS011;5892;43.412;24.612;2022-11-15T07:43:07;33.20;;;23.53;;
11671;SDS011;5892;43.412;24.612;2022-11-15T07:45:41;60.47;;;31.80;;
11671;SDS011;5892;43.412;24.612;2022-11-15T07:48:09;38.33;;;25.37;;
11671;SDS011;5892;43.412;24.612;2022-11-15T07:50:35;40.30;;;26.83;;
11671;SDS011;5892;43.412;24.612;2022-11-15T07:53:03;42.87;;;28.10;;
11671;SDS011;5892;43.412;24.612;2022-11-15T07:55:30;34.90;;;24.40;;
11671;SDS011;5892;43.412;24.612;2022-11-15T07:58:00;33.00;;;23.40;;
11671;SDS011;5892;43.412;24.612;2022-11-15T08:03:50;29.93;;;22.70;;
11671;SDS011;5892;43.412;24.612;2022-11-15T08:06:17;30.73;;;21.90;;
11671;SDS011;5892;43.412;24.612;2022-11-15T08:08:46;32.23;;;23.63;;
11671;SDS011;5892;43.412;24.612;2022-11-15T08:11:13;27.50;;;20.53;;
11671;SDS011;5892;43.412;24.612;2022-11-15T08:13:40;28.13;;;21.67;;
11671;SDS011;5892;43.412;24.612;2022-11-15T08:16:07;29.43;;;21.67;;
11671;SDS011;5892;43.412;24.612;2022-11-15T08:18:34;22.57;;;16.90;;
11671;SDS011;5892;43.412;24.612;2022-11-15T08:21:03;20.70;;;15.77;;
11671;SDS011;5892;43.412;24.612;2022-11-15T08:23:30;19.70;;;15.13;;
11671;SDS011;5892;43.412;24.612;2022-11-15T08:26:01;26.30;;;17.90;;
11671;SDS011;5892;43.412;24.612;2022-11-15T08:28:29;27.63;;;18.17;;
11671;SDS011;5892;43.412;24.612;2022-11-15T08:30:56;30.87;;;20.03;;
11671;SDS011;5892;43.412;24.612;2022-11-15T08:33:23;41.30;;;23.30;;
11671;SDS011;5892;43.412;24.612;2022-11-15T08:35:50;21.57;;;16.43;;
11671;SDS011;5892;43.412;24.612;2022-11-15T08:38:19;28.97;;;19.97;;
11671;SDS011;5892;43.412;24.612;2022-11-15T08:40:46;23.93;;;17.67;;
11671;SDS011;5892;43.412;24.612;2022-11-15T08:43:12;23.40;;;17.13;;
11671;SDS011;5892;43.412;24.612;2022-11-15T08:45:40;23.40;;;16.77;;
11671;SDS011;5892;43.412;24.612;2022-11-15T08:48:07;28.17;;;20.20;;
11671;SDS011;5892;43.412;24.612;2022-11-15T08:50:47;23.50;;;17.40;;
11671;SDS011;5892;43.412;24.612;2022-11-15T08:53:14;22.90;;;17.27;;
11671;SDS011;5892;43.412;24.612;2022-11-15T08:55:43;22.67;;;16.57;;
11671;SDS011;5892;43.412;24.612;2022-11-15T08:58:10;26.53;;;18.33;;
11671;SDS011;5892;43.412;24.612;2022-11-15T09:00:37;22.47;;;16.03;;
11671;SDS011;5892;43.412;24.612;2022-11-15T09:03:04;22.63;;;16.90;;
11671;SDS011;5892;43.412;24.612;2022-11-15T09:05:31;23.80;;;16.77;;
11671;SDS011;5892;43.412;24.612;2022-11-15T09:07:58;21.13;;;16.30;;
11671;SDS011;5892;43.412;24.612;2022-11-15T09:10:25;17.67;;;12.93;;
11671;SDS011;5892;43.412;24.612;2022-11-15T09:12:54;13.50;;;10.67;;
11671;SDS011;5892;43.412;24.612;2022-11-15T09:15:22;13.63;;;10.40;;
11671;SDS011;5892;43.412;24.612;2022-11-15T09:17:49;13.43;;;10.83;;
11671;SDS011;5892;43.412;24.612;2022-11-15T09:20:16;17.30;;;12.93;;
11671;SDS011;5892;43.412;24.612;2022-11-15T09:22:43;15.67;;;12.13;;
11671;SDS011;5892;43.412;24.612;2022-11-15T09:25:10;14.00;;;10.77;;
11671;SDS011;5892;43.412;24.612;2022-11-15T09:27:37;17.83;;;11.30;;
11671;SDS011;5892;43.412;24.612;2022-11-15T09:30:06;13.07;;;8.93;;
11671;SDS011;5892;43.412;24.612;2022-11-15T09:32:33;13.67;;;9.00;;
11671;SDS011;5892;43.412;24.612;2022-11-15T09:35:01;17.20;;;13.03;;
11671;SDS011;5892;43.412;24.612;2022-11-15T09:37:28;13.93;;;9.80;;
11671;SDS011;5892;43.412;24.612;2022-11-15T09:39:55;14.53;;;11.73;;
11671;SDS011;5892;43.412;24.612;2022-11-15T09:42:31;21.53;;;15.43;;
11671;SDS011;5892;43.412;24.612;2022-11-15T09:45:15;17.50;;;11.40;;
11671;SDS011;5892;43.412;24.612;2022-11-15T09:47:53;12.93;;;9.37;;
11671;SDS011;5892;43.412;24.612;2022-11-15T09:50:31;10.47;;;8.70;;
11671;SDS011;5892;43.412;24.612;2022-11-15T09:53:02;13.40;;;9.40;;
11671;SDS011;5892;43.412;24.612;2022-11-15T09:55:32;13.67;;;10.87;;
11671;SDS011;5892;43.412;24.612;2022-11-15T09:58:16;13.40;;;10.80;;
11671;SDS011;5892;43.412;24.612;2022-11-15T10:00:54;15.07;;;11.67;;
11671;SDS011;5892;43.412;24.612;2022-11-15T10:03:27;14.67;;;11.47;;
11671;SDS011;5892;43.412;24.612;2022-11-15T10:06:15;13.70;;;10.50;;
11671;SDS011;5892;43.412;24.612;2022-11-15T10:08:51;16.33;;;10.83;;
11671;SDS011;5892;43.412;24.612;2022-11-15T10:11:24;11.30;;;9.40;;
11671;SDS011;5892;43.412;24.612;2022-11-15T10:20:16;10.63;;;9.07;;
11671;SDS011;5892;43.412;24.612;2022-11-15T10:22:46;8.63;;;7.67;;
11671;SDS011;5892;43.412;24.612;2022-11-15T10:25:20;8.47;;;6.43;;
11671;SDS011;5892;43.412;24.612;2022-11-15T10:27:56;8.00;;;6.67;;
11671;SDS011;5892;43.412;24.612;2022-11-15T10:30:29;9.00;;;7.57;;
11671;SDS011;5892;43.412;24.612;2022-11-15T10:33:00;8.80;;;6.60;;
11671;SDS011;5892;43.412;24.612;2022-11-15T10:35:38;9.93;;;7.17;;
11671;SDS011;5892;43.412;24.612;2022-11-15T10:38:05;9.10;;;7.70;;
11671;SDS011;5892;43.412;24.612;2022-11-15T10:43:15;9.03;;;7.13;;
11671;SDS011;5892;43.412;24.612;2022-11-15T10:45:44;10.43;;;7.93;;
11671;SDS011;5892;43.412;24.612;2022-11-15T10:48:24;9.70;;;7.00;;
11671;SDS011;5892;43.412;24.612;2022-11-15T10:50:52;11.13;;;6.77;;
11671;SDS011;5892;43.412;24.612;2022-11-15T10:53:21;7.10;;;6.40;;
11671;SDS011;5892;43.412;24.612;2022-11-15T10:55:53;8.70;;;7.40;;
11671;SDS011;5892;43.412;24.612;2022-11-15T10:58:26;8.47;;;7.57;;
11671;SDS011;5892;43.412;24.612;2022-11-15T11:01:09;8.23;;;7.30;;
11671;SDS011;5892;43.412;24.612;2022-11-15T11:03:43;10.17;;;7.80;;
11671;SDS011;5892;43.412;24.612;2022-11-15T11:06:11;10.27;;;8.30;;
11671;SDS011;5892;43.412;24.612;2022-11-15T11:08:40;9.43;;;8.00;;
11671;SDS011;5892;43.412;24.612;2022-11-15T11:11:21;11.07;;;8.97;;
11671;SDS011;5892;43.412;24.612;2022-11-15T11:13:52;10.83;;;8.50;;
11671;SDS011;5892;43.412;24.612;2022-11-15T11:16:22;10.50;;;9.40;;
11671;SDS011;5892;43.412;24.612;2022-11-15T11:19:11;9.07;;;8.13;;
11671;SDS011;5892;43.412;24.612;2022-11-15T11:22:01;12.63;;;8.60;;
11671;SDS011;5892;43.412;24.612;2022-11-15T11:24:36;12.73;;;9.83;;
11671;SDS011;5892;43.412;24.612;2022-11-15T11:30:17;11.93;;;8.57;;
11671;SDS011;5892;43.412;24.612;2022-11-15T11:35:52;11.17;;;9.67;;
11671;SDS011;5892;43.412;24.612;2022-11-15T11:38:32;15.83;;;10.57;;
11671;SDS011;5892;43.412;24.612;2022-11-15T11:41:08;8.77;;;7.60;;
11671;SDS011;5892;43.412;24.612;2022-11-15T11:43:41;9.17;;;7.17;;
11671;SDS011;5892;43.412;24.612;2022-11-15T11:46:25;8.50;;;7.60;;
11671;SDS011;5892;43.412;24.612;2022-11-15T11:49:08;11.60;;;8.20;;
11671;SDS011;5892;43.412;24.612;2022-11-15T11:51:38;9.17;;;7.97;;
11671;SDS011;5892;43.412;24.612;2022-11-15T11:54:11;10.33;;;7.87;;
11671;SDS011;5892;43.412;24.612;2022-11-15T11:56:41;11.17;;;8.73;;
11671;SDS011;5892;43.412;24.612;2022-11-15T11:59:33;13.70;;;9.83;;
11671;SDS011;5892;43.412;24.612;2022-11-15T12:02:09;13.67;;;9.87;;
11671;SDS011;5892;43.412;24.612;2022-11-15T12:04:43;11.37;;;9.80;;
11671;SDS011;5892;43.412;24.612;2022-11-15T12:07:15;14.57;;;10.03;;
11671;SDS011;5892;43.412;24.612;2022-11-15T12:12:44;22.40;;;13.47;;
11671;SDS011;5892;43.412;24.612;2022-11-15T12:15:19;11.00;;;9.80;;
11671;SDS011;5892;43.412;24.612;2022-11-15T12:17:50;14.63;;;11.37;;
11671;SDS011;5892;43.412;24.612;2022-11-15T12:20:17;10.27;;;9.23;;
11671;SDS011;5892;43.412;24.612;2022-11-15T12:22:49;11.97;;;9.87;;
11671;SDS011;5892;43.412;24.612;2022-11-15T12:25:22;10.80;;;9.33;;
11671;SDS011;5892;43.412;24.612;2022-11-15T12:27:55;11.27;;;8.67;;
11671;SDS011;5892;43.412;24.612;2022-11-15T12:30:29;27.40;;;16.70;;
11671;SDS011;5892;43.412;24.612;2022-11-15T12:33:15;12.00;;;9.17;;
11671;SDS011;5892;43.412;24.612;2022-11-15T12:35:58;10.87;;;9.27;;
11671;SDS011;5892;43.412;24.612;2022-11-15T12:41:24;11.20;;;9.80;;
11671;SDS011;5892;43.412;24.612;2022-11-15T12:43:52;15.83;;;12.07;;
11671;SDS011;5892;43.412;24.612;2022-11-15T12:46:58;17.87;;;13.70;;
11671;SDS011;5892;43.412;24.612;2022-11-15T12:49:44;9.73;;;8.73;;
11671;SDS011;5892;43.412;24.612;2022-11-15T12:52:12;10.30;;;9.20;;
11671;SDS011;5892;43.412;24.612;2022-11-15T12:54:51;11.93;;;9.50;;
11671;SDS011;5892;43.412;24.612;2022-11-15T12:57:33;11.63;;;9.90;;
11671;SDS011;5892;43.412;24.612;2022-11-15T13:03:21;10.97;;;9.87;;
11671;SDS011;5892;43.412;24.612;2022-11-15T13:08:58;13.57;;;10.77;;
11671;SDS011;5892;43.412;24.612;2022-11-15T13:14:38;13.17;;;11.87;;
11671;SDS011;5892;43.412;24.612;2022-11-15T13:17:28;11.60;;;9.70;;
11671;SDS011;5892;43.412;24.612;2022-11-15T13:20:14;26.90;;;17.93;;
11671;SDS011;5892;43.412;24.612;2022-11-15T13:22:46;17.90;;;13.37;;
11671;SDS011;5892;43.412;24.612;2022-11-15T13:25:45;13.10;;;9.50;;
11671;SDS011;5892;43.412;24.612;2022-11-15T13:28:32;11.60;;;9.70;;
11671;SDS011;5892;43.412;24.612;2022-11-15T13:31:03;10.80;;;9.20;;
11671;SDS011;5892;43.412;24.612;2022-11-15T13:33:44;13.40;;;10.10;;
11671;SDS011;5892;43.412;24.612;2022-11-15T13:36:12;39.63;;;24.57;;
11671;SDS011;5892;43.412;24.612;2022-11-15T13:38:42;35.33;;;23.13;;
11671;SDS011;5892;43.412;24.612;2022-11-15T13:41:17;23.27;;;18.67;;
11671;SDS011;5892;43.412;24.612;2022-11-15T13:43:47;13.73;;;12.23;;
11671;SDS011;5892;43.412;24.612;2022-11-15T13:46:16;13.33;;;11.97;;
11671;SDS011;5892;43.412;24.612;2022-11-15T13:48:45;13.97;;;11.67;;
11671;SDS011;5892;43.412;24.612;2022-11-15T13:51:17;12.70;;;11.37;;
11671;SDS011;5892;43.412;24.612;2022-11-15T13:53:50;14.77;;;11.73;;
11671;SDS011;5892;43.412;24.612;2022-11-15T13:56:21;13.73;;;11.13;;
11671;SDS011;5892;43.412;24.612;2022-11-15T13:58:51;15.17;;;11.93;;
11671;SDS011;5892;43.412;24.612;2022-11-15T14:01:19;13.73;;;12.00;;
11671;SDS011;5892;43.412;24.612;2022-11-15T14:03:55;16.13;;;12.43;;
11671;SDS011;5892;43.412;24.612;2022-11-15T14:06:24;17.87;;;14.17;;
11671;SDS011;5892;43.412;24.612;2022-11-15T14:09:04;19.50;;;15.03;;
11671;SDS011;5892;43.412;24.612;2022-11-15T14:11:51;13.90;;;11.73;;
11671;SDS011;5892;43.412;24.612;2022-11-15T14:14:21;17.80;;;13.83;;
11671;SDS011;5892;43.412;24.612;2022-11-15T14:16:49;15.80;;;12.80;;
11671;SDS011;5892;43.412;24.612;2022-11-15T14:19:35;15.83;;;13.50;;
11671;SDS011;5892;43.412;24.612;2022-11-15T14:22:07;19.63;;;15.03;;
11671;SDS011;5892;43.412;24.612;2022-11-15T14:24:36;22.30;;;18.07;;
11671;SDS011;5892;43.412;24.612;2022-11-15T14:27:23;21.30;;;17.43;;
11671;SDS011;5892;43.412;24.612;2022-11-15T14:29:53;20.83;;;18.60;;
11671;SDS011;5892;43.412;24.612;2022-11-15T14:32:21;32.07;;;23.37;;
11671;SDS011;5892;43.412;24.612;2022-11-15T14:34:53;39.57;;;28.20;;
11671;SDS011;5892;43.412;24.612;2022-11-15T14:37:22;63.83;;;39.20;;
11671;SDS011;5892;43.412;24.612;2022-11-15T14:39:50;46.47;;;30.67;;
11671;SDS011;5892;43.412;24.612;2022-11-15T14:42:18;30.20;;;23.83;;
11671;SDS011;5892;43.412;24.612;2022-11-15T14:45:12;24.67;;;19.43;;
11671;SDS011;5892;43.412;24.612;2022-11-15T14:47:40;26.37;;;18.80;;
11671;SDS011;5892;43.412;24.612;2022-11-15T14:50:10;23.30;;;16.93;;
11671;SDS011;5892;43.412;24.612;2022-11-15T14:52:39;20.57;;;15.93;;
11671;SDS011;5892;43.412;24.612;2022-11-15T14:55:11;20.77;;;15.20;;
11671;SDS011;5892;43.412;24.612;2022-11-15T14:57:43;15.77;;;13.60;;
11671;SDS011;5892;43.412;24.612;2022-11-15T15:00:12;17.40;;;14.87;;
11671;SDS011;5892;43.412;24.612;2022-11-15T15:02:40;29.60;;;24.87;;
11671;SDS011;5892;43.412;24.612;2022-11-15T15:05:15;20.57;;;15.87;;
11671;SDS011;5892;43.412;24.612;2022-11-15T15:07:43;17.23;;;13.20;;
11671;SDS011;5892;43.412;24.612;2022-11-15T15:10:11;18.70;;;14.93;;
11671;SDS011;5892;43.412;24.612;2022-11-15T15:12:52;15.10;;;13.50;;
11671;SDS011;5892;43.412;24.612;2022-11-15T15:15:21;15.70;;;13.80;;
11671;SDS011;5892;43.412;24.612;2022-11-15T15:17:51;15.80;;;14.07;;
11671;SDS011;5892;43.412;24.612;2022-11-15T15:20:18;14.80;;;13.20;;
11671;SDS011;5892;43.412;24.612;2022-11-15T15:22:45;17.57;;;14.40;;
11671;SDS011;5892;43.412;24.612;2022-11-15T15:25:22;16.00;;;14.30;;
11671;SDS011;5892;43.412;24.612;2022-11-15T15:27:52;18.10;;;14.60;;
11671;SDS011;5892;43.412;24.612;2022-11-15T15:30:21;17.03;;;13.50;;
11671;SDS011;5892;43.412;24.612;2022-11-15T15:32:49;15.93;;;13.63;;
11671;SDS011;5892;43.412;24.612;2022-11-15T15:35:16;16.60;;;14.50;;
11671;SDS011;5892;43.412;24.612;2022-11-15T15:37:44;15.10;;;13.50;;
11671;SDS011;5892;43.412;24.612;2022-11-15T15:40:13;18.23;;;14.70;;
11671;SDS011;5892;43.412;24.612;2022-11-15T15:42:42;17.00;;;14.47;;
11671;SDS011;5892;43.412;24.612;2022-11-15T15:45:10;20.37;;;15.13;;
11671;SDS011;5892;43.412;24.612;2022-11-15T15:47:39;18.83;;;15.73;;
11671;SDS011;5892;43.412;24.612;2022-11-15T15:50:13;20.67;;;16.77;;
11671;SDS011;5892;43.412;24.612;2022-11-15T15:52:47;22.67;;;18.60;;
11671;SDS011;5892;43.412;24.612;2022-11-15T15:55:14;22.27;;;17.73;;
11671;SDS011;5892;43.412;24.612;2022-11-15T15:57:41;31.97;;;24.73;;
11671;SDS011;5892;43.412;24.612;2022-11-15T16:00:47;20.23;;;16.87;;
11671;SDS011;5892;43.412;24.612;2022-11-15T16:03:16;15.90;;;13.87;;
11671;SDS011;5892;43.412;24.612;2022-11-15T16:05:45;16.57;;;14.33;;
11671;SDS011;5892;43.412;24.612;2022-11-15T16:08:16;17.67;;;13.67;;
11671;SDS011;5892;43.412;24.612;2022-11-15T16:10:45;18.40;;;15.00;;
11671;SDS011;5892;43.412;24.612;2022-11-15T16:13:12;19.70;;;14.77;;
11671;SDS011;5892;43.412;24.612;2022-11-15T16:15:39;19.97;;;16.27;;
11671;SDS011;5892;43.412;24.612;2022-11-15T16:18:06;20.47;;;16.80;;
11671;SDS011;5892;43.412;24.612;2022-11-15T16:20:41;18.97;;;16.47;;
11671;SDS011;5892;43.412;24.612;2022-11-15T16:23:11;20.07;;;16.93;;
11671;SDS011;5892;43.412;24.612;2022-11-15T16:25:41;19.70;;;16.93;;
11671;SDS011;5892;43.412;24.612;2022-11-15T16:28:14;22.03;;;17.60;;
11671;SDS011;5892;43.412;24.612;2022-11-15T16:30:46;20.53;;;15.50;;
11671;SDS011;5892;43.412;24.612;2022-11-15T16:33:14;22.40;;;17.13;;
11671;SDS011;5892;43.412;24.612;2022-11-15T16:35:44;20.10;;;17.47;;
11671;SDS011;5892;43.412;24.612;2022-11-15T16:38:13;22.60;;;18.27;;
11671;SDS011;5892;43.412;24.612;2022-11-15T16:40:44;25.00;;;18.57;;
11671;SDS011;5892;43.412;24.612;2022-11-15T16:43:25;24.00;;;17.60;;
11671;SDS011;5892;43.412;24.612;2022-11-15T16:45:52;20.87;;;17.83;;